createdAt,value
2018-12-17T00:00:25.884Z,16.87
2018-12-17T00:02:56.128Z,17.17
2018-12-17T00:05:26.100Z,17.33
2018-12-17T00:07:56.074Z,17.23
2018-12-17T00:10:25.153Z,17.67
2018-12-17T00:12:53.181Z,17.20
2018-12-17T00:15:21.210Z,15.63
2018-12-17T00:17:50.253Z,14.93
2018-12-17T00:20:18.281Z,14.70
2018-12-17T00:22:46.333Z,18.23
2018-12-17T00:25:14.418Z,16.23
2018-12-17T00:27:42.471Z,16.67
2018-12-17T00:30:10.510Z,20.13
2018-12-17T00:32:38.538Z,15.53
2018-12-17T00:35:06.582Z,15.13
2018-12-17T00:37:34.779Z,14.40
2018-12-17T00:40:04.106Z,14.97
2018-12-17T00:42:32.133Z,14.03
2018-12-17T00:45:00.173Z,13.83
2018-12-17T00:47:28.278Z,13.23
2018-12-17T00:49:56.293Z,14.47
2018-12-17T00:52:24.330Z,14.43
2018-12-17T00:54:52.413Z,14.53
2018-12-17T00:57:20.511Z,14.30
2018-12-17T00:59:48.528Z,16.33
2018-12-17T01:02:16.608Z,16.97
2018-12-17T01:04:44.643Z,18.17
2018-12-17T01:07:12.673Z,17.33
2018-12-17T01:09:40.765Z,17.93
2018-12-17T01:12:08.836Z,16.90
2018-12-17T01:14:36.873Z,16.03
2018-12-17T01:17:04.912Z,16.33
2018-12-17T01:19:32.953Z,14.80
2018-12-17T01:22:00.984Z,15.13
2018-12-17T01:24:29.023Z,14.67
2018-12-17T01:26:57.094Z,15.80
2018-12-17T01:29:25.218Z,13.57
2018-12-17T01:31:53.241Z,14.80
2018-12-17T01:34:21.301Z,15.63
2018-12-17T01:36:49.329Z,15.87
2018-12-17T01:39:17.369Z,15.90
2018-12-17T01:41:45.407Z,16.40
2018-12-17T01:44:13.428Z,16.13
2018-12-17T01:46:41.493Z,16.03
2018-12-17T01:49:09.664Z,14.90
2018-12-17T01:51:37.718Z,15.67
2018-12-17T01:54:05.809Z,14.13
2018-12-17T01:56:33.880Z,15.97
2018-12-17T01:59:01.921Z,16.20
2018-12-17T02:01:30.036Z,15.43
2018-12-17T02:03:58.082Z,15.93
2018-12-17T02:06:26.094Z,16.77
2018-12-17T02:08:54.140Z,14.80
2018-12-17T02:11:22.168Z,14.73
2018-12-17T02:13:50.348Z,14.70
2018-12-17T02:16:18.371Z,14.87
2018-12-17T02:18:46.460Z,14.37
2018-12-17T02:21:14.493Z,13.43
2018-12-17T02:23:42.534Z,14.50
2018-12-17T02:26:10.568Z,15.10
2018-12-17T02:28:38.589Z,14.83
2018-12-17T02:33:40.109Z,14.77
2018-12-17T02:36:08.317Z,15.17
2018-12-17T02:38:36.364Z,17.40
2018-12-17T02:41:04.389Z,15.93
2018-12-17T02:43:32.425Z,15.30
2018-12-17T02:46:00.514Z,15.63
2018-12-17T02:48:28.537Z,14.30
2018-12-17T02:50:56.569Z,13.43
2018-12-17T02:53:25.611Z,14.23
2018-12-17T02:55:53.649Z,13.50
2018-12-17T02:58:21.733Z,14.93
2018-12-17T03:00:49.826Z,15.03
2018-12-17T03:03:17.885Z,14.63
2018-12-17T03:05:45.977Z,15.13
2018-12-17T03:08:14.020Z,14.60
2018-12-17T03:10:42.060Z,14.13
2018-12-17T03:13:10.155Z,14.97
2018-12-17T03:15:38.244Z,16.27
2018-12-17T03:18:06.324Z,15.57
2018-12-17T03:20:34.365Z,14.80
2018-12-17T03:23:02.443Z,15.70
2018-12-17T03:25:30.486Z,14.93
2018-12-17T03:27:58.521Z,15.87
2018-12-17T03:30:26.552Z,14.43
2018-12-17T03:32:54.639Z,15.50
2018-12-17T03:35:22.769Z,16.03
2018-12-17T03:37:50.792Z,14.70
2018-12-17T03:40:18.835Z,15.73
2018-12-17T03:42:46.934Z,14.33
2018-12-17T03:45:14.977Z,15.57
2018-12-17T03:47:43.053Z,15.30
2018-12-17T03:50:13.047Z,14.47
2018-12-17T03:52:41.066Z,15.63
2018-12-17T03:55:09.098Z,24.07
2018-12-17T03:57:37.122Z,16.60
2018-12-17T04:00:06.721Z,15.33
2018-12-17T04:02:34.866Z,17.47
2018-12-17T04:05:03.161Z,15.90
2018-12-17T04:07:31.217Z,14.90
2018-12-17T04:09:59.369Z,24.80
2018-12-17T04:12:27.485Z,21.50
2018-12-17T04:14:55.578Z,17.73
2018-12-17T04:17:23.600Z,18.40
2018-12-17T04:19:51.646Z,17.60
2018-12-17T04:22:19.668Z,15.87
2018-12-17T04:24:47.704Z,18.77
2018-12-17T04:27:15.795Z,16.20
2018-12-17T04:29:43.928Z,16.93
2018-12-17T04:32:12.007Z,17.37
2018-12-17T04:34:40.085Z,15.67
2018-12-17T04:37:08.126Z,15.93
2018-12-17T04:39:36.151Z,16.37
2018-12-17T04:42:04.186Z,16.53
2018-12-17T04:44:32.217Z,17.50
2018-12-17T04:47:00.302Z,19.83
2018-12-17T04:49:28.336Z,20.03
2018-12-17T04:51:56.372Z,17.80
2018-12-17T04:54:24.521Z,16.63
2018-12-17T04:56:52.562Z,15.03
2018-12-17T04:59:20.639Z,15.53
2018-12-17T05:01:48.698Z,15.30
2018-12-17T05:04:16.762Z,14.73
2018-12-17T05:06:44.947Z,15.53
2018-12-17T05:09:13.022Z,14.27
2018-12-17T05:11:41.091Z,17.00
2018-12-17T05:14:09.130Z,16.20
2018-12-17T05:16:37.170Z,15.67
2018-12-17T05:19:05.197Z,16.30
2018-12-17T05:21:33.246Z,16.80
2018-12-17T05:24:01.328Z,15.07
2018-12-17T05:26:29.379Z,15.17
2018-12-17T05:28:57.401Z,15.93
2018-12-17T05:31:25.451Z,16.27
2018-12-17T05:33:53.476Z,14.20
2018-12-17T05:36:21.512Z,16.50
2018-12-17T05:38:49.596Z,15.60
2018-12-17T05:41:17.621Z,17.27
2018-12-17T05:43:45.805Z,16.80
2018-12-17T05:46:14.084Z,15.60
2018-12-17T05:48:42.121Z,19.07
2018-12-17T05:51:10.152Z,20.30
2018-12-17T05:53:38.238Z,17.63
2018-12-17T05:56:06.297Z,20.90
2018-12-17T05:58:34.437Z,22.77
2018-12-17T06:01:02.513Z,16.40
2018-12-17T06:03:30.587Z,16.03
2018-12-17T06:05:58.658Z,23.73
2018-12-17T06:08:26.725Z,23.43
2018-12-17T06:10:54.752Z,20.97
2018-12-17T06:13:22.858Z,21.03
2018-12-17T06:15:50.985Z,37.97
2018-12-17T06:18:19.018Z,23.03
2018-12-17T06:20:47.480Z,19.67
2018-12-17T06:23:15.541Z,19.23
2018-12-17T06:25:43.568Z,16.23
2018-12-17T06:28:11.598Z,14.87
2018-12-17T06:30:39.661Z,14.50
2018-12-17T06:33:07.676Z,13.90
2018-12-17T06:35:35.708Z,13.90
2018-12-17T06:38:03.745Z,14.10
2018-12-17T06:40:31.786Z,15.10
2018-12-17T06:42:59.825Z,15.77
2018-12-17T06:45:27.864Z,14.73
2018-12-17T06:47:55.928Z,17.07
2018-12-17T06:50:24.977Z,17.00
2018-12-17T06:52:53.014Z,17.53
2018-12-17T06:55:21.938Z,33.50
2018-12-17T06:57:50.097Z,30.70
2018-12-17T07:03:14.807Z,25.60
2018-12-17T07:05:42.845Z,22.60
2018-12-17T07:08:12.813Z,23.33
2018-12-17T07:10:41.066Z,20.90
2018-12-17T07:13:09.169Z,19.20
2018-12-17T07:15:37.207Z,15.97
2018-12-17T07:18:05.300Z,16.97
2018-12-17T07:23:51.344Z,16.93
2018-12-17T07:26:26.861Z,17.70
2018-12-17T07:29:11.773Z,18.03
2018-12-17T07:31:39.922Z,18.50
2018-12-17T07:42:54.658Z,17.27
2018-12-17T07:45:22.802Z,17.83
2018-12-17T07:47:51.987Z,17.60
2018-12-17T07:50:20.805Z,17.50
2018-12-17T07:52:48.965Z,19.57
2018-12-17T07:55:17.033Z,19.67
2018-12-17T07:57:45.080Z,19.03
2018-12-17T08:00:13.151Z,17.57
2018-12-17T08:02:41.341Z,15.07
2018-12-17T08:05:10.318Z,14.13
2018-12-17T08:07:38.505Z,15.43
2018-12-17T08:10:06.584Z,16.90
2018-12-17T08:12:34.630Z,15.37
2018-12-17T08:15:03.093Z,16.70
2018-12-17T08:17:31.200Z,16.80
2018-12-17T08:19:59.261Z,16.60
2018-12-17T08:28:21.406Z,17.23
2018-12-17T08:30:49.425Z,17.30
2018-12-17T08:33:17.494Z,17.70
2018-12-17T08:35:45.561Z,17.63
2018-12-17T08:38:13.596Z,17.70
2018-12-17T08:40:41.626Z,18.70
2018-12-17T08:43:09.668Z,16.73
2018-12-17T08:45:37.697Z,23.57
2018-12-17T08:48:05.734Z,33.07
2018-12-17T08:50:33.855Z,37.27
2018-12-17T08:53:01.969Z,20.43
2018-12-17T08:55:30.006Z,79.20
2018-12-17T08:57:58.098Z,86.37
2018-12-17T09:00:26.183Z,72.80
2018-12-17T09:05:51.625Z,30.83
2018-12-17T09:08:19.689Z,29.33
2018-12-17T09:10:47.757Z,28.63
2018-12-17T09:13:15.828Z,35.43
2018-12-17T09:15:43.905Z,28.70
2018-12-17T09:18:11.977Z,29.63
2018-12-17T09:20:40.061Z,29.73
2018-12-17T09:23:08.217Z,26.73
2018-12-17T09:25:36.259Z,25.03
2018-12-17T09:28:04.297Z,53.17
2018-12-17T09:30:32.334Z,56.40
2018-12-17T09:33:00.401Z,47.03
2018-12-17T09:35:28.438Z,45.57
2018-12-17T09:37:56.477Z,39.40
2018-12-17T09:40:24.513Z,32.33
2018-12-17T09:42:52.588Z,41.97
2018-12-17T09:45:20.641Z,39.77
2018-12-17T09:47:48.733Z,41.40
2018-12-17T09:50:16.856Z,36.97
2018-12-17T09:52:45.805Z,33.97
2018-12-17T09:55:13.895Z,30.73
2018-12-17T09:57:41.925Z,31.13
2018-12-17T10:00:10.020Z,24.07
2018-12-17T10:02:38.100Z,23.87
2018-12-17T10:05:06.145Z,21.80
2018-12-17T10:07:34.173Z,22.10
2018-12-17T10:10:02.238Z,21.90
2018-12-17T10:12:31.208Z,19.13
2018-12-17T10:14:59.446Z,19.57
2018-12-17T10:17:27.545Z,16.80
2018-12-17T10:19:55.589Z,18.20
2018-12-17T10:22:25.450Z,16.97
2018-12-17T10:24:53.528Z,17.33
2018-12-17T10:27:21.548Z,18.87
2018-12-17T10:29:49.614Z,19.70
2018-12-17T10:32:17.630Z,19.23
2018-12-17T10:34:45.660Z,18.17
2018-12-17T10:37:13.750Z,17.93
2018-12-17T10:39:41.795Z,17.17
2018-12-17T10:42:09.889Z,19.30
2018-12-17T10:44:37.923Z,20.00
2018-12-17T10:47:05.948Z,18.80
2018-12-17T10:49:33.984Z,20.10
2018-12-17T10:52:02.011Z,18.83
2018-12-17T10:54:30.105Z,21.07
2018-12-17T10:56:58.131Z,25.60
2018-12-17T10:59:26.163Z,33.10
2018-12-17T11:01:56.741Z,20.90
2018-12-17T11:04:25.901Z,27.50
2018-12-17T11:06:54.072Z,30.07
2018-12-17T11:09:22.050Z,19.97
2018-12-17T11:11:50.131Z,26.47
2018-12-17T11:14:18.207Z,20.73
2018-12-17T11:16:46.254Z,20.67
2018-12-17T11:19:14.273Z,22.37
2018-12-17T11:21:42.321Z,21.20
2018-12-17T11:24:10.353Z,18.73
2018-12-17T11:26:38.389Z,20.60
2018-12-17T11:29:06.428Z,20.30
2018-12-17T11:31:34.503Z,19.90
2018-12-17T11:34:02.560Z,20.67
2018-12-17T11:36:30.589Z,19.20
2018-12-17T11:38:58.620Z,20.57
2018-12-17T11:41:26.700Z,21.87
2018-12-17T11:43:55.576Z,22.73
2018-12-17T11:46:24.797Z,20.73
2018-12-17T11:48:52.919Z,21.37
2018-12-17T11:51:21.189Z,21.90
2018-12-17T11:53:49.297Z,20.83
2018-12-17T11:56:17.343Z,21.73
2018-12-17T11:58:45.368Z,24.93
2018-12-17T12:01:15.349Z,21.37
2018-12-17T12:03:43.651Z,21.70
2018-12-17T12:06:14.315Z,38.67
2018-12-17T12:08:41.677Z,39.60
2018-12-17T12:11:09.718Z,29.97
2018-12-17T12:13:38.741Z,23.07
2018-12-17T12:16:06.771Z,24.77
2018-12-17T12:18:34.830Z,71.30
2018-12-17T12:21:02.871Z,47.90
2018-12-17T12:23:30.894Z,30.03
2018-12-17T12:25:58.957Z,30.20
2018-12-17T12:28:26.957Z,28.57
2018-12-17T12:31:00.471Z,25.80
2018-12-17T12:33:24.984Z,44.77
2018-12-17T12:35:53.085Z,52.20
2018-12-17T12:38:21.137Z,57.40
2018-12-17T12:40:49.188Z,164.70
2018-12-17T12:43:17.217Z,40.20
2018-12-17T12:45:45.261Z,30.97
2018-12-17T12:48:13.311Z,30.37
2018-12-17T12:50:41.381Z,30.17
2018-12-17T12:53:09.410Z,28.50
2018-12-17T12:55:37.454Z,26.37
2018-12-17T12:58:05.495Z,26.63
2018-12-17T13:00:33.599Z,24.77
2018-12-17T13:03:01.630Z,47.03
2018-12-17T13:05:30.663Z,32.73
2018-12-17T13:07:58.737Z,27.17
2018-12-17T13:10:26.898Z,33.53
2018-12-17T13:12:54.974Z,37.70
2018-12-17T13:15:23.041Z,28.93
2018-12-17T13:17:51.074Z,48.67
2018-12-17T13:20:19.113Z,40.50
2018-12-17T13:22:47.154Z,92.03
2018-12-17T13:25:17.142Z,91.97
2018-12-17T13:27:45.173Z,96.23
2018-12-17T13:30:13.318Z,116.03
2018-12-17T13:32:41.359Z,91.10
2018-12-17T13:35:09.397Z,87.37
2018-12-17T13:37:37.437Z,119.20
2018-12-17T13:40:07.276Z,46.03
2018-12-17T13:42:35.305Z,47.13
2018-12-17T13:45:03.811Z,46.90
2018-12-17T13:47:31.854Z,41.03
2018-12-17T13:50:01.822Z,43.37
2018-12-17T13:52:35.602Z,54.30
2018-12-17T13:55:04.276Z,49.70
2018-12-17T13:57:32.301Z,28.77
2018-12-17T14:00:00.341Z,35.63
2018-12-17T14:02:28.373Z,36.70
2018-12-17T14:04:56.437Z,119.77
2018-12-17T14:07:24.468Z,235.97
2018-12-17T14:12:56.614Z,45.97
2018-12-17T14:15:26.583Z,36.97
2018-12-17T14:17:56.051Z,28.27
2018-12-17T14:23:35.037Z,27.13
2018-12-17T14:26:03.153Z,24.53
2018-12-17T14:28:31.181Z,24.03
2018-12-17T14:30:59.218Z,29.20
2018-12-17T14:33:27.243Z,33.17
2018-12-17T14:36:00.965Z,84.27
2018-12-17T14:38:29.041Z,52.37
2018-12-17T14:40:57.137Z,45.67
2018-12-17T14:43:25.178Z,29.57
2018-12-17T14:45:53.261Z,24.77
2018-12-17T14:48:21.316Z,23.77
2018-12-17T14:50:49.405Z,23.53
2018-12-17T14:53:17.456Z,25.43
2018-12-17T14:55:45.490Z,34.30
2018-12-17T14:58:13.564Z,41.23
2018-12-17T15:00:41.585Z,38.60
2018-12-17T15:03:09.641Z,33.27
2018-12-17T15:05:37.747Z,41.87
2018-12-17T15:08:05.793Z,35.83
2018-12-17T15:10:33.822Z,44.83
2018-12-17T15:13:01.862Z,27.87
2018-12-17T15:15:29.901Z,25.27
2018-12-17T15:17:57.934Z,25.90
2018-12-17T15:20:25.968Z,26.37
2018-12-17T15:22:54.010Z,26.07
2018-12-17T15:25:22.041Z,25.13
2018-12-17T15:27:50.110Z,24.23
2018-12-17T15:30:18.183Z,26.90
2018-12-17T15:32:46.273Z,26.63
2018-12-17T15:35:14.314Z,28.47
2018-12-17T15:37:42.365Z,35.77
2018-12-17T15:40:10.426Z,40.37
2018-12-17T15:42:40.886Z,36.70
2018-12-17T15:45:08.438Z,35.13
2018-12-17T15:47:36.485Z,32.23
2018-12-17T15:50:04.526Z,29.40
2018-12-17T15:52:32.632Z,27.03
2018-12-17T15:55:02.409Z,28.90
2018-12-17T15:57:30.675Z,30.87
2018-12-17T15:59:58.699Z,31.90
2018-12-17T16:02:26.740Z,27.77
2018-12-17T16:04:54.790Z,28.90
2018-12-17T16:07:22.907Z,29.53
2018-12-17T16:09:52.936Z,29.83
2018-12-17T16:12:20.971Z,31.07
2018-12-17T16:14:49.113Z,27.30
2018-12-17T16:17:17.137Z,27.93
2018-12-17T16:19:45.168Z,28.47
2018-12-17T16:22:13.214Z,27.67
2018-12-17T16:24:41.236Z,29.60
2018-12-17T16:27:09.269Z,30.93
2018-12-17T16:29:37.307Z,37.57
2018-12-17T16:32:05.342Z,35.07
2018-12-17T16:34:33.431Z,36.50
2018-12-17T16:37:01.682Z,30.30
2018-12-17T16:39:31.193Z,27.67
2018-12-17T16:41:59.390Z,24.90
2018-12-17T16:44:27.509Z,23.33
2018-12-17T16:46:55.571Z,25.00
2018-12-17T16:49:23.713Z,25.67
2018-12-17T16:51:51.745Z,23.83
2018-12-17T16:54:19.865Z,30.68
2018-12-17T16:56:47.962Z,25.70
2018-12-17T16:59:16.223Z,27.70
2018-12-17T17:01:44.321Z,23.97
2018-12-17T17:04:12.394Z,23.10
2018-12-17T17:06:40.429Z,30.60
2018-12-17T17:09:08.471Z,36.10
2018-12-17T17:11:37.473Z,46.00
2018-12-17T17:14:05.502Z,43.40
2018-12-17T17:16:33.630Z,39.40
2018-12-17T17:19:01.666Z,33.30
2018-12-17T17:21:29.702Z,28.33
2018-12-17T17:23:57.862Z,27.93
2018-12-17T17:26:25.950Z,29.40
2018-12-17T17:28:54.016Z,28.63
2018-12-17T17:31:22.158Z,44.80
2018-12-17T17:33:50.224Z,29.17
2018-12-17T17:36:18.316Z,25.27
2018-12-17T17:38:46.333Z,25.13
2018-12-17T17:41:14.387Z,27.40
2018-12-17T17:43:42.438Z,24.83
2018-12-17T17:46:10.467Z,23.33
2018-12-17T17:48:38.504Z,24.73
2018-12-17T17:51:07.493Z,25.60
2018-12-17T17:53:35.530Z,22.83
2018-12-17T17:56:03.570Z,22.93
2018-12-17T17:58:31.741Z,25.83
2018-12-17T18:00:59.854Z,28.77
2018-12-17T18:03:27.903Z,30.17
2018-12-17T18:05:55.934Z,28.03
2018-12-17T18:08:23.971Z,29.27
2018-12-17T18:10:52.038Z,27.20
2018-12-17T18:13:20.130Z,28.03
2018-12-17T18:15:48.161Z,26.70
2018-12-17T18:18:16.209Z,27.57
2018-12-17T18:20:44.241Z,95.57
2018-12-17T18:23:12.282Z,128.63
2018-12-17T18:25:40.441Z,35.57
2018-12-17T18:28:08.537Z,29.37
2018-12-17T18:30:36.598Z,28.10
2018-12-17T18:33:04.701Z,29.63
2018-12-17T18:35:32.843Z,25.43
2018-12-17T18:38:00.993Z,26.10
2018-12-17T18:40:29.105Z,25.67
2018-12-17T18:42:57.136Z,24.30
2018-12-17T18:45:25.172Z,23.43
2018-12-17T18:47:53.246Z,31.60
2018-12-17T18:50:21.574Z,28.20
2018-12-17T18:52:49.809Z,27.43
2018-12-17T18:55:18.018Z,28.57
2018-12-17T18:57:46.085Z,28.27
2018-12-17T19:00:14.285Z,28.53
2018-12-17T19:02:42.448Z,27.13
2018-12-17T19:05:10.510Z,23.20
2018-12-17T19:07:38.629Z,23.60
2018-12-17T19:10:06.781Z,24.57
2018-12-17T19:12:37.119Z,26.30
2018-12-17T19:15:06.417Z,27.43
2018-12-17T19:17:36.646Z,92.90
2018-12-17T19:20:04.685Z,31.77
2018-12-17T19:22:32.941Z,24.70
2018-12-17T19:25:01.021Z,24.13
2018-12-17T19:27:29.045Z,25.03
2018-12-17T19:29:57.092Z,24.93
2018-12-17T19:32:25.126Z,27.77
2018-12-17T19:34:53.163Z,24.40
2018-12-17T19:37:21.201Z,26.50
2018-12-17T19:39:49.272Z,24.77
2018-12-17T19:42:17.353Z,21.73
2018-12-17T19:44:45.393Z,24.07
2018-12-17T19:47:13.489Z,26.63
2018-12-17T19:49:41.661Z,30.67
2018-12-17T19:52:09.721Z,36.23
2018-12-17T19:54:37.768Z,28.97
2018-12-17T19:57:05.865Z,31.47
2018-12-17T19:59:33.941Z,29.37
2018-12-17T20:02:02.009Z,27.27
2018-12-17T20:04:30.051Z,23.10
2018-12-17T20:06:58.082Z,25.73
2018-12-17T20:09:26.121Z,24.23
2018-12-17T20:11:54.189Z,24.67
2018-12-17T20:14:23.296Z,30.03
2018-12-17T20:16:51.380Z,31.40
2018-12-17T20:19:19.542Z,30.93
2018-12-17T20:21:47.606Z,27.00
2018-12-17T20:24:16.641Z,26.57
2018-12-17T20:26:44.698Z,25.63
2018-12-17T20:29:12.870Z,25.40
2018-12-17T20:31:40.900Z,35.50
2018-12-17T20:34:08.920Z,36.47
2018-12-17T20:36:36.971Z,34.17
2018-12-17T20:39:06.282Z,62.00
2018-12-17T20:41:35.455Z,36.53
2018-12-17T20:44:03.520Z,32.30
2018-12-17T20:46:31.606Z,42.77
2018-12-17T20:48:59.683Z,35.63
2018-12-17T20:51:27.766Z,27.50
2018-12-17T20:53:55.778Z,32.13
2018-12-17T20:56:23.814Z,73.50
2018-12-17T20:58:51.978Z,36.40
2018-12-17T21:01:20.133Z,27.83
2018-12-17T21:03:48.214Z,28.30
2018-12-17T21:06:16.356Z,52.20
2018-12-17T21:08:44.509Z,97.87
2018-12-17T21:11:12.568Z,48.30
2018-12-17T21:13:40.689Z,34.27
2018-12-17T21:16:08.764Z,31.73
2018-12-17T21:18:36.796Z,35.87
2018-12-17T21:21:04.845Z,29.83
2018-12-17T21:23:33.217Z,43.30
2018-12-17T21:26:01.273Z,28.13
2018-12-17T21:28:29.309Z,59.33
2018-12-17T21:30:57.409Z,60.57
2018-12-17T21:33:25.441Z,35.03
2018-12-17T21:35:53.478Z,27.53
2018-12-17T21:38:21.569Z,50.27
2018-12-17T21:40:49.607Z,38.70
2018-12-17T21:43:17.668Z,31.27
2018-12-17T21:45:45.698Z,30.30
2018-12-17T21:48:13.801Z,53.93
2018-12-17T21:50:41.858Z,27.27
2018-12-17T21:53:09.897Z,30.93
2018-12-17T21:55:37.926Z,78.00
2018-12-17T21:58:05.990Z,62.07
2018-12-17T22:00:34.037Z,41.00
2018-12-17T22:03:02.079Z,53.23
2018-12-17T22:05:30.206Z,42.80
2018-12-17T22:07:58.274Z,52.37
2018-12-17T22:10:28.238Z,31.73
2018-12-17T22:12:56.357Z,28.13
2018-12-17T22:15:24.430Z,24.07
2018-12-17T22:17:52.460Z,28.00
2018-12-17T22:20:20.607Z,26.00
2018-12-17T22:22:48.637Z,37.77
2018-12-17T22:25:16.739Z,55.30
2018-12-17T22:27:44.789Z,25.90
2018-12-17T22:30:12.869Z,27.57
2018-12-17T22:32:40.899Z,30.17
2018-12-17T22:35:08.922Z,29.97
2018-12-17T22:37:36.965Z,31.50
2018-12-17T22:40:05.460Z,29.40
2018-12-17T22:42:33.658Z,23.07
2018-12-17T22:45:01.685Z,22.60
2018-12-17T22:47:29.828Z,18.03
2018-12-17T22:49:57.885Z,17.47
2018-12-17T22:52:25.993Z,19.40
2018-12-17T22:54:54.089Z,33.13
2018-12-17T22:57:22.989Z,30.93
2018-12-17T22:59:51.018Z,19.50
2018-12-17T23:02:19.126Z,18.40
2018-12-17T23:04:47.149Z,19.83
2018-12-17T23:07:15.266Z,18.33
2018-12-17T23:09:55.625Z,17.07
2018-12-17T23:12:35.590Z,16.60
2018-12-17T23:15:15.633Z,18.67
2018-12-17T23:17:43.303Z,17.50
2018-12-17T23:20:11.502Z,18.67
2018-12-17T23:22:42.495Z,16.67
2018-12-17T23:25:12.672Z,15.37
2018-12-17T23:27:44.617Z,16.43
2018-12-17T23:30:12.657Z,16.73
2018-12-17T23:32:40.693Z,14.20
2018-12-17T23:35:08.726Z,14.87
2018-12-17T23:37:36.778Z,14.90
2018-12-17T23:40:04.850Z,14.70
2018-12-17T23:42:32.888Z,15.07
2018-12-17T23:45:00.926Z,14.87
2018-12-17T23:47:29.014Z,15.83
2018-12-17T23:49:57.051Z,15.47
2018-12-17T23:52:25.186Z,14.80
2018-12-17T23:54:53.217Z,15.33
2018-12-17T23:57:21.349Z,21.13
2018-12-17T23:59:49.430Z,15.50
